LYN weather

Lyon-Bron Airport
Lyon/Bron, Rhône Alpes, France

Public forecast

Using degrees Celsius for public forecast. Weather courtesy of forecast.io.

METAR (pilot weather report)

Retrieved 2019/06/20 13:00 UTC (36 minutes ago):

LFLY 201300Z AUTO 36007KT 330V030 CAVOK 24/17 Q1015 TEMPO 4000 SHRA SCT040CB

TAF (pilot weather forecast)

Retrieved 2019/06/20 12:21 UTC (1 hour ago):

TAF LFLY 201100Z 2012/2112 36008KT 9999 SCT040 BKN100 TEMPO 2012/2020 4000 SHRA FEW040CB BKN045TCU PROB40 TEMPO 2012/2018 TSRA SCT040CB PROB40 TEMPO 2102/2106 -SHRA SCT070TCU TEMPO 2110/2112 FEW070TCU